Time;durP1;ratioP1;P1;durP2;ratioP2;P2;SDS_P1;SDS_P2;PMS_P1;PMS_P2;Temp;Humidity;BMP_temperature;BMP_pressure;BME280_temperature;BME280_humidity;BME280_pressure;Samples;Min_cycle;Max_cycle;Signal;HPM_P1;HPM_P2
2021/12/14 00:15:09;;;;;;;0.20;0.20;;;9.20;93.30;8.10;102563.00;;;;30428990;29;20163;-74
2021/12/14 00:30:11;;;;;;;0.10;0.10;;;9.10;93.80;8.10;102578.00;;;;30454012;29;20170;-74
2021/12/14 00:45:15;;;;;;;0.20;0.20;;;9.10;93.90;8.10;102582.00;;;;30437106;29;20048;-73
2021/12/14 01:00:24;;;;;;;0.20;0.20;;;9.20;93.40;8.10;102588.00;;;;30449049;29;20044;-74
2021/12/14 01:16:14;;;;;;;0.10;0.10;;;9.10;93.80;8.10;102606.00;;;;30438734;29;20142;-74
2021/12/14 01:31:29;;;;;;;0.50;0.50;;;9.10;94.10;8.10;102586.00;;;;30429350;29;20456;-75
2021/12/14 01:46:56;;;;;;;0.20;0.20;;;9.10;93.70;8.00;102564.00;;;;30442564;29;20052;-75
2021/12/14 02:02:44;;;;;;;0.15;0.15;;;9.10;94.00;8.00;102545.00;;;;30427854;29;20067;-74
2021/12/14 02:17:50;;;;;;;;;;;9.10;94.00;8.00;102541.00;;;;30441794;29;20060;-74
2021/12/14 02:38:18;;;;;;;0.22;0.22;;;9.80;94.50;7.90;102542.00;;;;31301430;28;20462;-74
2021/12/14 02:53:20;;;;;;;0.10;0.10;;;9.00;94.20;7.90;102545.00;;;;31081580;28;20517;-74
2021/12/14 03:08:27;;;;;;;0.20;0.20;;;9.00;94.70;7.90;102522.00;;;;31069720;28;20141;-74
2021/12/14 03:23:49;;;;;;;0.20;0.20;;;10.40;94.70;7.90;102500.00;;;;31091811;28;20088;-74
2021/12/14 03:39:10;;;;;;;0.20;0.20;;;9.00;94.80;7.80;102509.00;;;;31055882;28;20053;-74
2021/12/14 03:54:15;;;;;;;0.20;0.20;;;8.90;94.30;7.80;102529.00;;;;31013151;28;20057;-74
2021/12/14 04:09:21;;;;;;;0.20;0.20;;;9.10;95.10;7.80;102558.00;;;;30998355;28;20082;-75
2021/12/14 04:24:27;;;;;;;0.43;0.43;;;8.90;94.50;7.80;102550.00;;;;30973871;28;20573;-74
2021/12/14 04:39:42;;;;;;;0.20;0.20;;;8.80;94.70;7.80;102551.00;;;;30974567;28;20149;-74
2021/12/14 04:54:49;;;;;;;0.15;0.15;;;8.90;94.30;7.80;102524.00;;;;30960589;28;20037;-74
2021/12/14 05:09:53;;;;;;;0.20;0.20;;;8.90;94.90;7.80;102525.00;;;;30985757;28;20425;-75
2021/12/14 05:25:03;;;;;;;0.20;0.20;;;8.90;94.20;7.80;102506.00;;;;30978086;28;20863;-74
2021/12/14 05:40:20;;;;;;;0.20;0.20;;;8.90;94.60;7.80;102513.00;;;;31001243;28;20049;-74
2021/12/14 05:55:33;;;;;;;0.20;0.20;;;8.80;94.10;7.70;102516.00;;;;30997291;28;20062;-74
2021/12/14 06:10:37;;;;;;;0.20;0.20;;;9.20;94.60;7.70;102541.00;;;;30966448;28;20129;-74
2021/12/14 06:25:39;;;;;;;0.20;0.20;;;8.80;94.20;7.70;102550.00;;;;30978929;28;20092;-74
2021/12/14 06:41:01;;;;;;;0.10;0.10;;;8.90;94.80;7.70;102557.00;;;;30972593;28;20128;-74
2021/12/14 06:56:08;;;;;;;4.13;3.80;;;8.80;94.20;7.70;102577.00;;;;30964257;28;20043;-74
2021/12/14 07:11:26;;;;;;;0.13;0.13;;;8.50;94.60;7.70;102595.00;;;;30977668;28;20104;-74
2021/12/14 07:26:27;;;;;;;0.20;0.20;;;6.60;93.70;7.70;102595.00;;;;31010613;28;20555;-74
2021/12/14 07:41:43;;;;;;;0.30;0.30;;;8.80;94.80;7.70;102623.00;;;;31000544;28;20505;-74
2021/12/14 07:57:09;;;;;;;0.10;0.10;;;8.80;94.20;7.70;102638.00;;;;30992107;28;20046;-75
2021/12/14 08:12:31;;;;;;;0.20;0.20;;;8.90;94.40;7.70;102648.00;;;;30964277;28;20140;-76
2021/12/14 08:27:32;;;;;;;0.20;0.20;;;9.40;94.90;7.70;102664.00;;;;30991084;28;20129;-76
2021/12/14 08:43:09;;;;;;;0.20;0.20;;;8.80;94.60;7.80;102654.00;;;;31005395;28;20145;-77
2021/12/14 08:58:12;;;;;;;0.30;0.30;;;8.90;94.50;7.80;102658.00;;;;31121236;28;20058;-77
2021/12/14 09:13:15;;;;;;;0.20;0.20;;;9.00;94.20;7.90;102666.00;;;;31103094;28;20505;-77
2021/12/14 09:28:17;;;;;;;0.17;0.17;;;8.90;94.70;8.00;102656.00;;;;31101979;28;20057;-76
2021/12/14 09:43:22;;;;;;;0.20;0.20;;;9.10;94.50;8.10;102670.00;;;;31114702;28;20501;-76
2021/12/14 09:58:31;;;;;;;1.00;1.00;;;9.20;93.90;8.20;102669.00;;;;31101978;28;20038;-76
2021/12/14 10:13:37;;;;;;;0.17;0.17;;;9.40;93.90;8.30;102664.00;;;;31096850;28;20081;-77
2021/12/14 10:28:45;;;;;;;0.10;0.10;;;9.40;94.30;8.50;102667.00;;;;31113854;28;20053;-76
2021/12/14 10:43:47;;;;;;;4.07;1.95;;;9.50;94.20;8.50;102668.00;;;;31086796;28;20128;-76
2021/12/14 10:58:54;;;;;;;0.30;0.30;;;9.70;93.80;8.70;102662.00;;;;31119967;28;20065;-76
2021/12/14 11:14:01;;;;;;;0.20;0.20;;;9.90;93.70;8.90;102656.00;;;;31124923;28;20057;-76
2021/12/14 11:29:10;;;;;;;0.20;0.20;;;9.90;94.20;9.00;102647.00;;;;31138316;28;20585;-75
2021/12/14 11:44:34;;;;;;;0.20;0.20;;;10.00;94.10;9.20;102626.00;;;;31121856;28;20124;-75
2021/12/14 11:59:37;;;;;;;0.50;0.50;;;10.30;93.50;9.30;102626.00;;;;31133937;28;20496;-75
2021/12/14 12:14:39;;;;;;;0.30;0.30;;;10.30;93.40;9.30;102622.00;;;;31118684;28;20076;-75
2021/12/14 12:29:41;;;;;;;0.25;0.25;;;10.30;93.70;9.30;102626.00;;;;31131160;28;20053;-74
2021/12/14 12:44:43;;;;;;;0.50;0.50;;;10.30;93.90;9.40;102632.00;;;;31120543;28;20050;-77
2021/12/14 13:00:21;;;;;;;0.20;0.20;;;10.40;93.70;9.40;102633.00;;;;31096559;28;20045;-73
2021/12/14 13:15:38;;;;;;;0.65;0.35;;;10.40;93.70;9.40;102618.00;;;;31116461;28;20498;-73
2021/12/14 13:30:41;;;;;;;0.30;0.30;;;10.40;94.10;9.40;102607.00;;;;31122468;28;20045;-74
2021/12/14 13:46:03;;;;;;;0.22;0.22;;;10.70;94.20;9.40;102620.00;;;;31105826;28;20085;-74
2021/12/14 14:01:18;;;;;;;0.52;0.52;;;10.40;94.00;9.40;102621.00;;;;31115595;28;20058;-74
2021/12/14 14:16:20;;;;;;;0.20;0.20;;;10.30;94.80;9.30;102610.00;;;;31110070;28;20529;-74
2021/12/14 14:31:31;;;;;;;0.32;0.32;;;10.30;95.20;9.20;102610.00;;;;31106495;28;20133;-74
2021/12/14 14:46:38;;;;;;;0.10;0.10;;;10.20;95.00;9.30;102620.00;;;;31117151;28;20042;-75
2021/12/14 15:01:39;;;;;;;0.30;0.30;;;10.30;95.30;9.30;102622.00;;;;31124219;28;20057;-75
2021/12/14 15:16:58;;;;;;;0.35;0.35;;;10.30;95.00;9.30;102630.00;;;;31087500;28;20136;-75
2021/12/14 15:32:19;;;;;;;0.20;0.20;;;10.30;95.10;9.30;102653.00;;;;31106179;28;20432;-75
2021/12/14 15:47:20;;;;;;;0.13;0.13;;;10.30;95.40;9.30;102658.00;;;;31116550;28;20528;-75
2021/12/14 16:02:30;;;;;;;0.40;0.40;;;10.30;95.00;9.30;102659.00;;;;31137298;28;20042;-80
2021/12/14 16:17:31;;;;;;;0.20;0.20;;;10.30;94.80;9.30;102667.00;;;;31142755;28;20048;-74
2021/12/14 16:32:32;;;;;;;0.20;0.20;;;10.30;95.40;9.30;102673.00;;;;31096821;28;20634;-73
2021/12/14 16:47:43;;;;;;;0.57;0.57;;;10.30;95.30;9.30;102669.00;;;;31121496;28;20057;-74
2021/12/14 17:02:47;;;;;;;0.60;0.60;;;10.30;94.80;9.30;102675.00;;;;31105077;28;20307;-73
2021/12/14 17:17:52;;;;;;;0.40;0.40;;;10.30;94.80;9.30;102690.00;;;;31099535;28;20132;-74
2021/12/14 17:32:54;;;;;;;0.87;0.87;;;10.30;95.30;9.40;102698.00;;;;31103252;28;20046;-73
2021/12/14 17:48:00;;;;;;;0.30;0.30;;;10.40;95.40;9.30;102711.00;;;;31095922;28;20142;-73
2021/12/14 18:03:09;;;;;;;0.55;0.55;;;10.30;95.00;9.30;102713.00;;;;31085365;28;20199;-75
2021/12/14 18:33:32;;;;;;;0.43;0.43;;;10.80;95.60;9.30;102715.00;;;;31086322;28;20042;-75
2021/12/14 19:04:13;;;;;;;0.50;0.50;;;10.40;95.40;9.40;102740.00;;;;31078026;28;20215;-75
2021/12/14 19:19:24;;;;;;;0.65;0.65;;;10.40;95.00;9.40;102746.00;;;;31092335;28;20160;-74
2021/12/14 19:34:40;;;;;;;0.20;0.20;;;10.70;95.60;9.40;102760.00;;;;31122702;28;20091;-75
2021/12/14 19:49:52;;;;;;;0.28;0.28;;;10.50;95.00;9.30;102750.00;;;;31091644;28;20050;-75
2021/12/14 20:04:58;;;;;;;0.40;0.40;;;10.30;95.30;9.30;102770.00;;;;31079469;28;20153;-74
2021/12/14 20:20:13;;;;;;;0.10;0.10;;;10.30;95.00;9.20;102768.00;;;;31093176;28;20129;-76
2021/12/14 20:35:29;;;;;;;3.43;1.37;;;10.10;95.50;9.20;102769.00;;;;31087778;28;20045;-76
2021/12/14 20:50:34;;;;;;;0.20;0.20;;;10.20;95.30;9.20;102770.00;;;;31100114;28;20049;-75
2021/12/14 21:05:39;;;;;;;0.10;0.10;;;10.30;95.80;9.10;102772.00;;;;31100083;28;20525;-76
2021/12/14 21:20:46;;;;;;;2.15;1.90;;;10.20;95.50;9.10;102777.00;;;;31098660;28;20077;-76
2021/12/14 21:36:08;;;;;;;0.38;0.38;;;10.20;95.70;9.10;102786.00;;;;31093222;28;20525;-76
2021/12/14 21:51:16;;;;;;;0.17;0.17;;;10.20;95.30;9.10;102789.00;;;;31085055;28;20042;-76
2021/12/14 22:06:17;;;;;;;0.10;0.10;;;10.10;95.80;9.10;102790.00;;;;31077315;28;20045;-76
2021/12/14 22:21:18;;;;;;;0.20;0.20;;;10.10;95.30;9.10;102793.00;;;;31112038;28;20049;-75
2021/12/14 22:36:19;;;;;;;0.22;0.22;;;11.00;95.90;9.10;102802.00;;;;31100751;28;20413;-75
2021/12/14 22:51:22;;;;;;;0.85;0.85;;;10.10;95.20;9.00;102812.00;;;;31112618;28;20294;-75
2021/12/14 23:06:29;;;;;;;0.10;0.10;;;10.10;95.60;9.00;102822.00;;;;31116692;28;20064;-75
2021/12/14 23:21:30;;;;;;;1.05;0.95;;;10.00;95.20;9.00;102812.00;;;;31129874;28;20121;-76
2021/12/14 23:36:31;;;;;;;0.17;0.17;;;10.10;95.70;9.00;102820.00;;;;31142285;28;20050;-75
2021/12/14 23:51:33;;;;;;;0.47;0.47;;;8.40;94.80;9.00;102811.00;;;;31124810;28;20057;-75
